createdAt,value
2023-02-17T00:02:40.775Z,60.41
2023-02-17T00:07:44.309Z,61.13
2023-02-17T00:12:49.306Z,60.92
2023-02-17T00:17:52.751Z,60.49
2023-02-17T00:22:56.222Z,60.26
2023-02-17T00:28:01.107Z,61.18
2023-02-17T00:33:04.677Z,60.84
2023-02-17T00:38:08.157Z,59.55
2023-02-17T00:43:14.277Z,60.63
2023-02-17T00:48:17.774Z,60.59
2023-02-17T00:53:21.487Z,59.78
2023-02-17T00:58:26.870Z,61.10
2023-02-17T01:03:30.724Z,59.89
2023-02-17T01:08:34.207Z,59.42
2023-02-17T01:13:39.154Z,60.52
2023-02-17T01:18:42.647Z,59.39
2023-02-17T01:23:46.350Z,60.31
2023-02-17T01:28:51.790Z,59.94
2023-02-17T01:33:55.700Z,60.66
2023-02-17T01:38:59.140Z,60.07
2023-02-17T01:44:09.594Z,59.93
2023-02-17T01:49:21.399Z,59.38
2023-02-17T01:54:28.001Z,59.15
2023-02-17T01:59:33.064Z,60.89
2023-02-17T02:04:38.200Z,60.01
2023-02-17T02:09:44.660Z,61.04
2023-02-17T02:14:50.663Z,60.16
2023-02-17T02:20:24.948Z,60.21
2023-02-17T02:25:44.494Z,60.59
2023-02-17T02:31:07.175Z,60.59
2023-02-17T02:36:14.467Z,59.29
2023-02-17T02:41:21.236Z,59.80
2023-02-17T02:46:24.786Z,60.00
2023-02-17T02:51:40.892Z,60.41
2023-02-17T02:56:53.314Z,60.43
2023-02-17T03:02:04.009Z,59.67
2023-02-17T03:07:12.933Z,59.29
2023-02-17T03:12:16.678Z,59.75
2023-02-17T03:17:20.306Z,59.25
2023-02-17T03:22:27.352Z,60.42
2023-02-17T03:27:30.783Z,58.92
2023-02-17T03:32:34.264Z,59.04
2023-02-17T03:37:39.339Z,59.67
2023-02-17T03:42:42.824Z,60.06
2023-02-17T03:47:46.619Z,58.81
2023-02-17T03:52:51.512Z,59.39
2023-02-17T03:57:55.001Z,58.85
2023-02-17T04:02:58.629Z,59.97
2023-02-17T04:08:03.519Z,59.81
2023-02-17T04:13:06.973Z,59.09
2023-02-17T04:18:10.439Z,60.41
2023-02-17T04:23:15.279Z,58.78
2023-02-17T04:28:19.355Z,59.91
2023-02-17T04:33:22.852Z,60.61
2023-02-17T04:38:28.658Z,59.38
2023-02-17T04:43:32.151Z,58.90
2023-02-17T04:48:35.634Z,58.77
2023-02-17T04:53:40.479Z,58.67
2023-02-17T04:58:43.981Z,59.46
2023-02-17T05:03:47.416Z,60.13
2023-02-17T05:08:53.948Z,59.78
2023-02-17T05:13:57.731Z,59.67
2023-02-17T05:19:01.228Z,58.80
2023-02-17T05:24:06.617Z,59.42
2023-02-17T05:29:10.119Z,59.55
2023-02-17T05:34:14.455Z,59.53
2023-02-17T05:39:19.314Z,59.19
2023-02-17T05:44:22.808Z,58.65
2023-02-17T05:49:26.249Z,59.53
2023-02-17T05:54:31.146Z,59.82
2023-02-17T05:59:34.626Z,59.49
2023-02-17T06:04:38.353Z,59.81
2023-02-17T06:09:43.272Z,59.86
2023-02-17T06:14:46.662Z,59.28
2023-02-17T06:19:50.122Z,58.34
2023-02-17T06:24:55.124Z,59.27
2023-02-17T06:29:58.589Z,58.50
2023-02-17T06:35:02.003Z,59.87
2023-02-17T06:40:07.920Z,60.00
2023-02-17T06:45:11.380Z,59.71
2023-02-17T06:50:15.172Z,59.93
2023-02-17T06:55:20.369Z,59.50
2023-02-17T07:00:24.344Z,59.00
2023-02-17T07:05:27.838Z,58.40
2023-02-17T07:10:32.717Z,58.59
2023-02-17T07:15:36.271Z,58.17
2023-02-17T07:20:39.743Z,58.57
2023-02-17T07:25:45.995Z,59.76
2023-02-17T07:30:49.397Z,59.28
2023-02-17T07:35:52.767Z,59.80
2023-02-17T07:40:57.545Z,59.63
2023-02-17T07:46:00.974Z,58.39
2023-02-17T07:51:08.991Z,59.50
2023-02-17T07:56:15.469Z,59.48
2023-02-17T08:01:20.927Z,57.98
2023-02-17T08:06:26.299Z,58.68
2023-02-17T08:11:49.987Z,57.87
2023-02-17T08:16:54.092Z,58.34
2023-02-17T08:21:57.657Z,58.01
2023-02-17T08:27:02.462Z,58.77
2023-02-17T08:32:06.179Z,57.82
2023-02-17T08:37:10.545Z,59.24
2023-02-17T08:42:15.418Z,58.58
2023-02-17T08:47:18.995Z,58.08
2023-02-17T08:52:22.432Z,58.31
2023-02-17T08:57:27.625Z,59.80
2023-02-17T09:02:31.097Z,58.68
2023-02-17T09:07:34.600Z,59.51
2023-02-17T09:12:39.520Z,58.68
2023-02-17T09:17:43.073Z,58.34
2023-02-17T09:22:46.603Z,59.76
2023-02-17T09:27:51.456Z,58.71
2023-02-17T09:32:54.813Z,58.42
2023-02-17T09:37:58.409Z,57.95
2023-02-17T09:43:03.184Z,58.30
2023-02-17T09:48:09.601Z,58.05
2023-02-17T09:53:17.675Z,57.95
2023-02-17T09:58:25.337Z,57.27
2023-02-17T10:03:32.731Z,58.59
2023-02-17T10:08:38.577Z,57.78
2023-02-17T10:13:44.198Z,57.85
2023-02-17T10:18:50.859Z,58.43
2023-02-17T10:23:54.327Z,56.78
2023-02-17T10:29:02.020Z,57.43
2023-02-17T10:34:06.515Z,57.34
2023-02-17T10:39:14.482Z,58.17
2023-02-17T10:44:23.015Z,57.66
2023-02-17T10:49:28.806Z,57.59
2023-02-17T10:54:36.497Z,56.44
2023-02-17T10:59:42.575Z,56.13
2023-02-17T11:04:48.396Z,57.03
2023-02-17T11:09:53.195Z,56.59
2023-02-17T11:14:57.992Z,56.58
2023-02-17T11:20:04.638Z,57.37
2023-02-17T11:25:21.000Z,56.33
2023-02-17T11:30:26.696Z,57.05
2023-02-17T11:35:45.176Z,57.97
2023-02-17T11:40:57.124Z,56.66
2023-02-17T11:46:09.714Z,58.00
2023-02-17T11:51:17.616Z,57.08
2023-02-17T11:56:24.513Z,57.70
2023-02-17T12:01:42.008Z,57.88
2023-02-17T12:06:53.555Z,57.46
2023-02-17T12:12:03.111Z,56.21
2023-02-17T12:17:15.930Z,57.89
2023-02-17T12:22:20.937Z,56.83
2023-02-17T12:27:36.411Z,57.10
2023-02-17T12:32:54.351Z,58.06
2023-02-17T12:38:00.863Z,58.25
2023-02-17T12:43:09.018Z,57.89
2023-02-17T12:48:17.730Z,57.80
2023-02-17T12:53:27.201Z,58.25
2023-02-17T12:58:30.939Z,56.47
2023-02-17T13:03:36.803Z,56.64
2023-02-17T13:08:43.136Z,56.78
2023-02-17T13:13:46.492Z,58.29
2023-02-17T13:18:52.917Z,57.36
2023-02-17T13:24:02.121Z,57.75
2023-02-17T13:29:12.064Z,57.33
2023-02-17T13:34:28.175Z,57.09
2023-02-17T13:39:37.830Z,57.22
2023-02-17T13:44:42.780Z,58.02
2023-02-17T13:49:53.292Z,58.05
2023-02-17T13:54:58.365Z,57.36
2023-02-17T14:00:24.355Z,58.28
2023-02-17T14:05:38.355Z,57.59
2023-02-17T14:10:41.966Z,57.18
2023-02-17T14:15:53.449Z,58.60
2023-02-17T14:21:03.847Z,57.46
2023-02-17T14:26:11.892Z,58.39
2023-02-17T14:31:24.542Z,57.46
2023-02-17T14:36:34.936Z,57.01
2023-02-17T14:41:38.392Z,58.29
2023-02-17T14:46:41.974Z,57.28
2023-02-17T14:51:46.790Z,58.04
2023-02-17T14:56:55.014Z,59.00
2023-02-17T15:01:58.463Z,58.65
2023-02-17T15:07:03.269Z,58.34
2023-02-17T15:12:11.560Z,57.54
2023-02-17T15:17:15.314Z,57.64
2023-02-17T15:22:20.203Z,58.48
2023-02-17T15:27:23.558Z,58.96
2023-02-17T15:32:27.007Z,57.52
2023-02-17T15:37:31.829Z,59.07
2023-02-17T15:42:35.465Z,59.16
2023-02-17T15:47:38.933Z,57.85
2023-02-17T15:52:43.774Z,57.60
2023-02-17T15:57:49.095Z,58.95
2023-02-17T16:02:52.900Z,58.59
2023-02-17T16:07:57.884Z,59.31
2023-02-17T16:13:02.271Z,59.09
2023-02-17T16:18:06.444Z,58.74
2023-02-17T16:23:11.217Z,58.98
2023-02-17T16:28:17.579Z,58.83
2023-02-17T16:33:21.119Z,58.05
2023-02-17T16:38:25.894Z,59.35
2023-02-17T16:43:30.975Z,58.96
2023-02-17T16:48:37.079Z,57.97
2023-02-17T16:53:43.342Z,58.99
2023-02-17T16:58:46.734Z,58.57
2023-02-17T17:03:50.166Z,59.26
2023-02-17T17:08:55.353Z,58.06
2023-02-17T17:13:58.724Z,58.89
2023-02-17T17:19:02.952Z,59.52
2023-02-17T17:24:07.741Z,58.01
2023-02-17T17:29:13.739Z,58.54
2023-02-17T17:34:17.131Z,58.66
2023-02-17T17:39:24.602Z,59.54
2023-02-17T17:44:28.570Z,59.62
2023-02-17T17:49:31.993Z,58.72
2023-02-17T17:54:36.739Z,58.74
2023-02-17T17:59:40.112Z,60.10
2023-02-17T18:04:43.557Z,60.08
2023-02-17T18:09:48.408Z,59.32
2023-02-17T18:14:54.522Z,59.51
2023-02-17T18:19:57.904Z,59.93
2023-02-17T18:25:02.755Z,58.96
2023-02-17T18:30:07.400Z,58.50
2023-02-17T18:35:10.986Z,59.72
2023-02-17T18:40:18.279Z,59.89
2023-02-17T18:45:22.085Z,59.91
2023-02-17T18:50:26.177Z,59.05
2023-02-17T18:55:31.026Z,59.76
2023-02-17T19:00:34.469Z,58.63
2023-02-17T19:05:37.971Z,59.41
2023-02-17T19:10:42.887Z,59.17
2023-02-17T19:15:46.419Z,59.79
2023-02-17T19:20:49.863Z,58.61
2023-02-17T19:25:57.235Z,59.75
2023-02-17T19:31:01.565Z,59.65
2023-02-17T19:36:08.832Z,59.05
2023-02-17T19:41:14.535Z,58.31
2023-02-17T19:46:21.202Z,58.56
2023-02-17T19:51:24.728Z,58.64
2023-02-17T19:56:30.982Z,58.14
2023-02-17T20:01:35.474Z,58.99
2023-02-17T20:06:41.122Z,58.03
2023-02-17T20:11:46.635Z,59.33
2023-02-17T20:16:50.211Z,58.92
2023-02-17T20:21:53.733Z,58.96
2023-02-17T20:26:58.525Z,57.79
2023-02-17T20:32:02.117Z,58.87
2023-02-17T20:37:06.594Z,59.03
2023-02-17T20:42:11.444Z,58.71
2023-02-17T20:47:14.884Z,58.67
2023-02-17T20:52:19.157Z,57.61
2023-02-17T20:57:24.395Z,58.71
2023-02-17T21:02:27.909Z,59.11
2023-02-17T21:07:31.330Z,58.98
2023-02-17T21:12:36.160Z,57.75
2023-02-17T21:17:39.849Z,57.87
2023-02-17T21:22:43.295Z,58.22
2023-02-17T21:27:48.126Z,57.50
2023-02-17T21:32:51.614Z,57.74
2023-02-17T21:37:55.220Z,57.93
2023-02-17T21:43:17.292Z,57.75
2023-02-17T21:48:20.754Z,58.86
2023-02-17T21:53:24.234Z,57.72
2023-02-17T21:58:29.047Z,58.65
2023-02-17T22:03:32.626Z,57.79
2023-02-17T22:08:36.098Z,57.71
2023-02-17T22:13:41.003Z,58.78
2023-02-17T22:18:44.539Z,56.87
2023-02-17T22:23:48.027Z,58.54
2023-02-17T22:28:54.052Z,57.19
2023-02-17T22:33:58.352Z,57.15
2023-02-17T22:39:02.334Z,58.04
2023-02-17T22:44:07.495Z,57.82
2023-02-17T22:49:11.149Z,57.63
2023-02-17T22:54:14.665Z,57.41
2023-02-17T22:59:19.519Z,57.21
2023-02-17T23:04:22.983Z,57.74
2023-02-17T23:09:26.447Z,56.55
2023-02-17T23:14:34.130Z,57.03
2023-02-17T23:19:37.935Z,57.16
2023-02-17T23:24:41.444Z,56.91
2023-02-17T23:29:46.316Z,56.22
2023-02-17T23:34:49.819Z,57.17
2023-02-17T23:39:53.284Z,57.74
2023-02-17T23:44:58.268Z,57.56
2023-02-17T23:50:02.055Z,57.32
2023-02-17T23:55:06.937Z,57.05
